createdAt,value
2022-11-24T00:01:10.792Z,8.40
2022-11-24T00:05:15.654Z,8.67
2022-11-24T00:09:20.535Z,9.43
2022-11-24T00:13:25.425Z,8.67
2022-11-24T00:17:30.348Z,9.47
2022-11-24T00:21:36.426Z,8.90
2022-11-24T00:25:41.473Z,8.20
2022-11-24T00:29:46.334Z,9.50
2022-11-24T00:33:54.253Z,8.77
2022-11-24T00:37:59.210Z,7.50
2022-11-24T00:42:04.083Z,8.47
2022-11-24T00:46:09.131Z,8.20
2022-11-24T00:50:14.200Z,8.80
2022-11-24T00:54:19.101Z,8.57
2022-11-24T00:58:25.038Z,8.50
2022-11-24T01:02:29.926Z,8.60
2022-11-24T01:06:36.640Z,8.03
2022-11-24T01:10:41.582Z,8.47
2022-11-24T01:14:46.540Z,7.90
2022-11-24T01:18:52.077Z,8.60
2022-11-24T01:22:57.061Z,8.50
2022-11-24T01:27:01.902Z,7.40
2022-11-24T01:31:08.162Z,7.77
2022-11-24T01:35:13.079Z,7.40
2022-11-24T01:39:18.041Z,7.10
2022-11-24T01:43:23.061Z,7.80
2022-11-24T01:47:40.811Z,6.77
2022-11-24T01:51:53.648Z,7.30
2022-11-24T01:55:59.147Z,7.53
2022-11-24T02:00:13.480Z,7.00
2022-11-24T02:04:23.876Z,7.20
2022-11-24T02:08:54.947Z,6.63
2022-11-24T02:13:00.728Z,7.30
2022-11-24T02:17:05.721Z,7.70
2022-11-24T02:21:16.114Z,6.93
2022-11-24T02:25:23.997Z,7.30
2022-11-24T02:29:28.877Z,6.97
2022-11-24T02:33:34.967Z,6.83
2022-11-24T02:37:39.925Z,6.70
2022-11-24T02:42:08.721Z,7.00
2022-11-24T02:46:13.681Z,6.30
2022-11-24T02:50:18.707Z,6.60
2022-11-24T02:54:23.718Z,6.70
2022-11-24T02:58:28.584Z,6.53
2022-11-24T03:02:33.653Z,6.70
2022-11-24T03:06:39.025Z,6.17
2022-11-24T03:10:43.981Z,6.57
2022-11-24T03:14:48.884Z,6.67
2022-11-24T03:18:54.134Z,6.03
2022-11-24T03:22:59.028Z,6.50
2022-11-24T03:27:04.029Z,6.60
2022-11-24T03:31:11.174Z,5.80
2022-11-24T03:35:16.130Z,7.00
2022-11-24T03:39:21.038Z,7.20
2022-11-24T03:43:26.155Z,7.30
2022-11-24T03:47:31.197Z,7.67
2022-11-24T03:51:36.213Z,7.47
2022-11-24T03:55:43.609Z,7.90
2022-11-24T03:59:48.501Z,7.03
2022-11-24T04:03:53.367Z,7.10
2022-11-24T04:07:58.414Z,7.10
2022-11-24T04:12:22.222Z,6.40
2022-11-24T04:16:27.192Z,7.07
2022-11-24T04:20:32.401Z,7.53
2022-11-24T04:24:37.245Z,8.20
2022-11-24T04:28:42.215Z,7.10
2022-11-24T04:32:47.190Z,8.07
2022-11-24T04:36:52.086Z,8.60
2022-11-24T04:41:05.053Z,7.20
2022-11-24T04:45:11.375Z,7.83
2022-11-24T04:49:16.279Z,8.00
2022-11-24T04:53:21.374Z,7.50
2022-11-24T04:57:27.460Z,8.37
2022-11-24T05:01:33.059Z,7.33
2022-11-24T05:05:37.979Z,7.73
2022-11-24T05:10:01.276Z,8.07
2022-11-24T05:14:06.108Z,8.10
2022-11-24T05:18:16.578Z,7.97
2022-11-24T05:22:21.473Z,7.90
2022-11-24T05:26:27.847Z,7.97
2022-11-24T05:30:32.887Z,7.20
2022-11-24T05:34:38.117Z,8.60
2022-11-24T05:38:42.980Z,8.37
2022-11-24T05:42:48.424Z,8.57
2022-11-24T05:46:53.402Z,7.70
2022-11-24T05:50:59.156Z,7.60
2022-11-24T05:55:05.554Z,8.23
2022-11-24T05:59:10.422Z,8.77
2022-11-24T06:03:15.569Z,8.80
2022-11-24T06:07:21.730Z,8.23
2022-11-24T06:11:26.953Z,7.77
2022-11-24T06:15:31.977Z,7.07
2022-11-24T06:19:41.703Z,8.43
2022-11-24T06:23:50.295Z,8.30
2022-11-24T06:27:55.317Z,8.60
2022-11-24T06:32:00.313Z,8.30
2022-11-24T06:36:08.434Z,8.27
2022-11-24T06:40:13.417Z,8.70
2022-11-24T06:44:18.849Z,7.70
2022-11-24T06:48:25.367Z,7.93
2022-11-24T06:52:30.388Z,7.73
2022-11-24T06:56:35.548Z,8.20
2022-11-24T07:00:40.562Z,9.40
2022-11-24T07:04:45.619Z,7.53
2022-11-24T07:08:51.949Z,8.73
2022-11-24T07:12:56.804Z,8.43
2022-11-24T07:17:02.658Z,8.93
2022-11-24T07:21:07.918Z,9.07
2022-11-24T07:25:14.525Z,8.07
2022-11-24T07:29:19.545Z,9.10
2022-11-24T07:33:26.110Z,8.67
2022-11-24T07:37:32.030Z,8.23
2022-11-24T07:41:37.038Z,8.30
2022-11-24T07:45:42.051Z,8.43
2022-11-24T07:49:47.091Z,8.80
2022-11-24T07:53:52.192Z,8.27
2022-11-24T07:58:01.616Z,8.17
2022-11-24T08:02:06.640Z,8.40
2022-11-24T08:06:38.149Z,8.33
2022-11-24T08:10:38.600Z,8.20
2022-11-24T08:14:43.759Z,8.50
2022-11-24T08:18:54.929Z,8.33
2022-11-24T08:23:00.804Z,8.93
2022-11-24T08:27:05.706Z,8.07
2022-11-24T08:31:15.661Z,8.63
2022-11-24T08:35:20.751Z,8.70
2022-11-24T08:39:25.659Z,9.27
2022-11-24T08:43:31.072Z,8.67
2022-11-24T08:47:35.937Z,8.80
2022-11-24T08:51:41.226Z,7.87
2022-11-24T08:55:46.090Z,8.70
2022-11-24T08:59:50.957Z,8.50
2022-11-24T09:03:56.238Z,9.10
2022-11-24T09:08:01.263Z,9.00
2022-11-24T09:12:09.957Z,8.93
2022-11-24T09:16:23.818Z,8.40
2022-11-24T09:20:28.795Z,8.90
2022-11-24T09:24:33.953Z,8.30
2022-11-24T09:28:39.066Z,9.43
2022-11-24T09:32:43.938Z,7.67
2022-11-24T09:36:51.487Z,9.20
2022-11-24T09:40:56.745Z,9.43
2022-11-24T09:45:35.642Z,8.00
2022-11-24T09:50:21.837Z,7.70
2022-11-24T09:54:29.970Z,8.13
2022-11-24T09:58:48.650Z,8.23
2022-11-24T10:02:53.628Z,8.60
2022-11-24T10:07:07.179Z,7.43
2022-11-24T10:11:16.252Z,8.17
2022-11-24T10:16:04.851Z,8.03
2022-11-24T10:20:30.808Z,7.60
2022-11-24T10:25:17.014Z,7.03
2022-11-24T10:29:33.240Z,7.60
2022-11-24T10:33:38.441Z,7.67
2022-11-24T10:38:03.918Z,8.03
2022-11-24T10:42:31.997Z,6.77
2022-11-24T10:46:39.442Z,7.70
2022-11-24T10:50:45.119Z,7.00
2022-11-24T10:55:01.881Z,8.03
2022-11-24T10:59:29.548Z,7.77
2022-11-24T11:03:53.342Z,7.90
2022-11-24T11:08:32.214Z,7.37
2022-11-24T11:12:44.049Z,7.00
2022-11-24T11:16:56.080Z,7.53
2022-11-24T11:21:02.555Z,7.37
2022-11-24T11:25:10.494Z,7.33
2022-11-24T11:34:09.366Z,7.60
2022-11-24T11:38:17.042Z,7.10
2022-11-24T11:47:01.196Z,7.20
2022-11-24T11:51:45.022Z,7.07
2022-11-24T11:56:21.901Z,7.10
2022-11-24T12:00:27.404Z,7.23
2022-11-24T12:04:44.210Z,7.13
2022-11-24T12:09:20.712Z,7.00
2022-11-24T12:14:03.033Z,6.90
2022-11-24T12:18:58.594Z,7.70
2022-11-24T12:23:41.449Z,7.20
2022-11-24T12:28:31.981Z,7.17
2022-11-24T12:33:14.405Z,7.37
2022-11-24T12:37:31.464Z,7.10
2022-11-24T12:42:27.339Z,7.10
2022-11-24T12:47:03.064Z,7.40
2022-11-24T12:51:20.303Z,6.53
2022-11-24T12:55:25.844Z,7.37
2022-11-24T13:00:06.820Z,7.13
2022-11-24T13:04:43.221Z,6.73
2022-11-24T13:08:48.564Z,7.87
2022-11-24T13:13:08.541Z,6.80
2022-11-24T13:17:47.599Z,6.43
2022-11-24T13:22:03.783Z,7.63
2022-11-24T13:26:29.063Z,7.40
2022-11-24T13:30:33.898Z,7.83
2022-11-24T13:34:41.886Z,6.70
2022-11-24T13:38:46.668Z,7.00
2022-11-24T13:42:57.830Z,7.40
2022-11-24T13:47:07.283Z,7.00
2022-11-24T13:51:24.213Z,7.17
2022-11-24T13:55:39.098Z,8.13
2022-11-24T13:59:44.471Z,7.10
2022-11-24T14:04:33.680Z,6.97
2022-11-24T14:08:38.885Z,6.50
2022-11-24T14:12:43.965Z,5.97
2022-11-24T14:16:49.633Z,6.57
2022-11-24T14:20:56.115Z,6.50
2022-11-24T14:25:02.850Z,6.23
2022-11-24T14:29:22.099Z,6.30
2022-11-24T14:33:27.133Z,6.87
2022-11-24T14:37:32.112Z,6.30
2022-11-24T14:41:37.378Z,6.93
2022-11-24T14:46:03.767Z,7.03
2022-11-24T14:50:19.307Z,6.40
2022-11-24T14:54:24.991Z,5.90
2022-11-24T14:58:40.490Z,6.20
2022-11-24T15:02:55.632Z,6.50
2022-11-24T15:07:18.849Z,6.63
2022-11-24T15:11:23.949Z,6.67
2022-11-24T15:15:39.359Z,6.90
2022-11-24T15:19:48.701Z,6.83
2022-11-24T15:24:17.087Z,6.23
2022-11-24T15:28:28.602Z,6.20
2022-11-24T15:32:33.727Z,6.00
2022-11-24T15:36:38.586Z,5.90
2022-11-24T15:40:47.793Z,6.93
2022-11-24T15:44:52.735Z,5.60
2022-11-24T15:48:58.042Z,5.73
2022-11-24T15:53:04.635Z,6.67
2022-11-24T15:57:11.166Z,6.47
2022-11-24T16:01:16.162Z,7.23
2022-11-24T16:05:21.206Z,6.30
2022-11-24T16:09:26.343Z,7.27
2022-11-24T16:13:31.455Z,6.40
2022-11-24T16:17:36.462Z,8.07
2022-11-24T16:21:41.535Z,6.83
2022-11-24T16:25:46.524Z,6.93
2022-11-24T16:29:51.421Z,8.03
2022-11-24T16:33:56.389Z,8.10
2022-11-24T16:38:01.286Z,7.70
2022-11-24T16:42:06.289Z,7.50
2022-11-24T16:46:23.619Z,7.80
2022-11-24T16:50:28.690Z,7.80
2022-11-24T16:54:33.705Z,7.50
2022-11-24T16:58:40.830Z,8.40
2022-11-24T17:02:46.442Z,11.90
2022-11-24T17:06:51.697Z,12.50
2022-11-24T17:10:56.677Z,12.97
2022-11-24T17:15:31.005Z,11.27
2022-11-24T17:19:26.465Z,11.67
2022-11-24T17:23:31.486Z,12.13
2022-11-24T17:27:36.474Z,10.80
2022-11-24T17:31:41.393Z,10.67
2022-11-24T17:35:46.277Z,10.30
2022-11-24T17:40:26.322Z,10.97
2022-11-24T17:44:20.575Z,11.00
2022-11-24T17:48:25.886Z,10.57
2022-11-24T17:52:30.889Z,10.17
2022-11-24T17:56:35.846Z,9.20
2022-11-24T18:00:40.776Z,9.20
2022-11-24T18:04:45.782Z,9.73
2022-11-24T18:08:51.703Z,8.70
2022-11-24T18:12:57.129Z,8.17
2022-11-24T18:17:02.122Z,8.27
2022-11-24T18:21:13.592Z,8.33
2022-11-24T18:25:18.638Z,8.33
2022-11-24T18:29:23.480Z,8.57
2022-11-24T18:33:28.495Z,7.57
2022-11-24T18:37:34.388Z,7.30
2022-11-24T18:41:39.986Z,8.47
2022-11-24T18:45:46.525Z,8.07
2022-11-24T18:49:51.502Z,8.70
2022-11-24T18:54:00.001Z,9.40
2022-11-24T18:58:05.059Z,9.13
2022-11-24T19:02:11.397Z,10.60
2022-11-24T19:06:21.525Z,9.80
2022-11-24T19:10:26.418Z,9.00
2022-11-24T19:14:31.428Z,9.67
2022-11-24T19:18:36.404Z,9.50
2022-11-24T19:22:41.364Z,8.93
2022-11-24T19:26:46.676Z,7.70
2022-11-24T19:30:51.570Z,8.70
2022-11-24T19:34:56.458Z,8.60
2022-11-24T19:39:03.108Z,9.67
2022-11-24T19:43:08.038Z,10.60
2022-11-24T19:47:12.974Z,9.97
2022-11-24T19:51:21.045Z,9.70
2022-11-24T19:55:25.916Z,8.50
2022-11-24T19:59:30.901Z,8.90
2022-11-24T20:03:37.142Z,9.90
2022-11-24T20:07:42.159Z,9.60
2022-11-24T20:11:48.605Z,10.60
2022-11-24T20:15:53.474Z,9.10
2022-11-24T20:19:58.955Z,8.90
2022-11-24T20:24:11.618Z,12.87
2022-11-24T20:28:16.504Z,13.07
2022-11-24T20:32:21.380Z,11.90
2022-11-24T20:36:28.955Z,11.47
2022-11-24T20:40:33.840Z,11.00
2022-11-24T20:44:38.987Z,11.97
2022-11-24T20:48:44.319Z,11.00
2022-11-24T20:52:49.181Z,10.00
2022-11-24T20:56:54.612Z,10.70
2022-11-24T21:01:09.161Z,10.07
2022-11-24T21:05:14.122Z,9.87
2022-11-24T21:09:19.476Z,10.63
2022-11-24T21:13:24.795Z,8.30
2022-11-24T21:17:32.586Z,8.57
2022-11-24T21:21:39.286Z,8.60
2022-11-24T21:25:44.374Z,10.67
2022-11-24T21:29:49.308Z,11.23
2022-11-24T21:33:55.044Z,9.97
2022-11-24T21:37:59.911Z,10.07
2022-11-24T21:42:05.443Z,9.80
2022-11-24T21:46:12.116Z,9.90
2022-11-24T21:50:17.519Z,8.47
2022-11-24T21:54:23.234Z,8.73
2022-11-24T21:58:29.330Z,8.17
2022-11-24T22:02:34.367Z,8.00
2022-11-24T22:06:39.389Z,7.40
2022-11-24T22:10:44.490Z,8.27
2022-11-24T22:14:49.360Z,7.93
2022-11-24T22:18:54.369Z,8.00
2022-11-24T22:22:59.231Z,7.67
2022-11-24T22:27:04.362Z,7.13
2022-11-24T22:31:16.075Z,8.03
2022-11-24T22:35:21.151Z,7.40
2022-11-24T22:39:26.089Z,8.57
2022-11-24T22:43:33.751Z,8.40
2022-11-24T22:47:38.678Z,8.40
2022-11-24T22:51:43.578Z,7.63
2022-11-24T22:55:48.493Z,8.40
2022-11-24T22:59:53.377Z,8.10
2022-11-24T23:03:58.604Z,7.03
2022-11-24T23:08:03.776Z,8.67
2022-11-24T23:12:08.959Z,7.83
2022-11-24T23:16:18.980Z,7.40
2022-11-24T23:20:23.902Z,7.73
2022-11-24T23:24:28.773Z,7.70
2022-11-24T23:28:34.162Z,7.70
2022-11-24T23:32:39.085Z,7.77
2022-11-24T23:36:44.001Z,7.30
2022-11-24T23:40:48.883Z,7.87
2022-11-24T23:44:53.738Z,8.30
2022-11-24T23:48:59.158Z,7.20
2022-11-24T23:53:04.048Z,6.83
2022-11-24T23:57:10.169Z,8.13
